sensor_id;sensor_type;location;lat;lon;timestamp;P1;durP1;ratioP1;P2;durP2;ratioP2
5058;SDS011;2548;52.050;11.036;2022-10-13T00:01:32;23.40;;;11.55;;
5058;SDS011;2548;52.050;11.036;2022-10-13T00:04:00;17.27;;;10.25;;
5058;SDS011;2548;52.050;11.036;2022-10-13T00:06:27;28.88;;;13.65;;
5058;SDS011;2548;52.050;11.036;2022-10-13T00:08:57;13.10;;;10.18;;
5058;SDS011;2548;52.050;11.036;2022-10-13T00:11:25;20.20;;;10.75;;
5058;SDS011;2548;52.050;11.036;2022-10-13T00:13:55;19.90;;;11.38;;
5058;SDS011;2548;52.050;11.036;2022-10-13T00:16:24;16.02;;;10.25;;
5058;SDS011;2548;52.050;11.036;2022-10-13T00:18:52;16.48;;;10.60;;
5058;SDS011;2548;52.050;11.036;2022-10-13T00:21:20;16.70;;;10.80;;
5058;SDS011;2548;52.050;11.036;2022-10-13T00:23:49;18.67;;;10.80;;
5058;SDS011;2548;52.050;11.036;2022-10-13T00:26:19;16.67;;;11.43;;
5058;SDS011;2548;52.050;11.036;2022-10-13T00:28:47;15.88;;;10.32;;
5058;SDS011;2548;52.050;11.036;2022-10-13T00:31:16;17.20;;;11.68;;
5058;SDS011;2548;52.050;11.036;2022-10-13T00:33:44;24.02;;;11.52;;
5058;SDS011;2548;52.050;11.036;2022-10-13T00:36:16;14.93;;;10.75;;
5058;SDS011;2548;52.050;11.036;2022-10-13T00:38:43;24.83;;;12.27;;
5058;SDS011;2548;52.050;11.036;2022-10-13T00:41:10;19.33;;;12.40;;
5058;SDS011;2548;52.050;11.036;2022-10-13T00:43:50;18.65;;;11.98;;
5058;SDS011;2548;52.050;11.036;2022-10-13T00:46:24;24.67;;;11.38;;
5058;SDS011;2548;52.050;11.036;2022-10-13T00:49:00;22.90;;;12.00;;
5058;SDS011;2548;52.050;11.036;2022-10-13T00:51:31;22.08;;;10.52;;
5058;SDS011;2548;52.050;11.036;2022-10-13T00:54:00;18.83;;;11.60;;
5058;SDS011;2548;52.050;11.036;2022-10-13T00:56:31;15.80;;;11.10;;
5058;SDS011;2548;52.050;11.036;2022-10-13T00:59:01;12.40;;;9.73;;
5058;SDS011;2548;52.050;11.036;2022-10-13T01:01:31;19.58;;;11.48;;
5058;SDS011;2548;52.050;11.036;2022-10-13T01:03:58;20.17;;;9.68;;
5058;SDS011;2548;52.050;11.036;2022-10-13T01:06:26;14.85;;;10.60;;
5058;SDS011;2548;52.050;11.036;2022-10-13T01:08:53;23.73;;;10.90;;
5058;SDS011;2548;52.050;11.036;2022-10-13T01:11:25;26.52;;;11.65;;
5058;SDS011;2548;52.050;11.036;2022-10-13T01:14:10;16.48;;;10.35;;
5058;SDS011;2548;52.050;11.036;2022-10-13T01:16:46;22.65;;;12.68;;
5058;SDS011;2548;52.050;11.036;2022-10-13T01:19:37;21.05;;;11.05;;
5058;SDS011;2548;52.050;11.036;2022-10-13T01:22:26;21.00;;;11.05;;
5058;SDS011;2548;52.050;11.036;2022-10-13T01:25:13;16.45;;;10.48;;
5058;SDS011;2548;52.050;11.036;2022-10-13T01:27:58;22.67;;;12.10;;
5058;SDS011;2548;52.050;11.036;2022-10-13T01:30:43;23.08;;;10.20;;
5058;SDS011;2548;52.050;11.036;2022-10-13T01:33:18;21.60;;;11.43;;
5058;SDS011;2548;52.050;11.036;2022-10-13T01:35:55;14.70;;;11.95;;
5058;SDS011;2548;52.050;11.036;2022-10-13T01:38:34;27.98;;;12.95;;
5058;SDS011;2548;52.050;11.036;2022-10-13T01:41:07;21.02;;;12.20;;
5058;SDS011;2548;52.050;11.036;2022-10-13T01:43:42;13.48;;;10.57;;
5058;SDS011;2548;52.050;11.036;2022-10-13T01:46:14;25.95;;;12.60;;
5058;SDS011;2548;52.050;11.036;2022-10-13T01:48:46;17.98;;;11.68;;
5058;SDS011;2548;52.050;11.036;2022-10-13T01:51:15;20.40;;;10.98;;
5058;SDS011;2548;52.050;11.036;2022-10-13T01:53:46;16.35;;;12.15;;
5058;SDS011;2548;52.050;11.036;2022-10-13T01:56:14;23.35;;;12.13;;
5058;SDS011;2548;52.050;11.036;2022-10-13T01:58:43;22.73;;;11.70;;
5058;SDS011;2548;52.050;11.036;2022-10-13T02:01:23;20.25;;;12.02;;
5058;SDS011;2548;52.050;11.036;2022-10-13T02:04:00;22.02;;;11.82;;
5058;SDS011;2548;52.050;11.036;2022-10-13T02:06:43;18.00;;;10.75;;
5058;SDS011;2548;52.050;11.036;2022-10-13T02:09:15;17.67;;;12.80;;
5058;SDS011;2548;52.050;11.036;2022-10-13T02:11:53;21.35;;;11.77;;
5058;SDS011;2548;52.050;11.036;2022-10-13T02:14:26;23.30;;;11.88;;
5058;SDS011;2548;52.050;11.036;2022-10-13T02:16:58;19.63;;;12.60;;
5058;SDS011;2548;52.050;11.036;2022-10-13T02:19:28;19.25;;;13.25;;
5058;SDS011;2548;52.050;11.036;2022-10-13T02:21:59;19.92;;;13.98;;
5058;SDS011;2548;52.050;11.036;2022-10-13T02:24:26;28.15;;;13.55;;
5058;SDS011;2548;52.050;11.036;2022-10-13T02:26:54;30.02;;;13.63;;
5058;SDS011;2548;52.050;11.036;2022-10-13T02:29:22;19.17;;;12.57;;
5058;SDS011;2548;52.050;11.036;2022-10-13T02:31:49;21.02;;;13.80;;
5058;SDS011;2548;52.050;11.036;2022-10-13T02:34:20;23.40;;;14.07;;
5058;SDS011;2548;52.050;11.036;2022-10-13T02:36:48;16.85;;;13.32;;
5058;SDS011;2548;52.050;11.036;2022-10-13T02:39:15;21.15;;;14.40;;
5058;SDS011;2548;52.050;11.036;2022-10-13T02:41:43;22.17;;;12.30;;
5058;SDS011;2548;52.050;11.036;2022-10-13T02:44:11;19.52;;;13.20;;
5058;SDS011;2548;52.050;11.036;2022-10-13T02:46:41;31.17;;;14.07;;
5058;SDS011;2548;52.050;11.036;2022-10-13T02:49:08;25.25;;;14.18;;
5058;SDS011;2548;52.050;11.036;2022-10-13T02:51:37;27.60;;;13.98;;
5058;SDS011;2548;52.050;11.036;2022-10-13T02:54:05;25.40;;;13.98;;
5058;SDS011;2548;52.050;11.036;2022-10-13T02:56:32;25.90;;;14.57;;
5058;SDS011;2548;52.050;11.036;2022-10-13T02:58:59;20.70;;;12.73;;
5058;SDS011;2548;52.050;11.036;2022-10-13T03:01:27;19.27;;;12.63;;
5058;SDS011;2548;52.050;11.036;2022-10-13T03:03:54;22.35;;;14.85;;
5058;SDS011;2548;52.050;11.036;2022-10-13T03:06:22;17.20;;;12.40;;
5058;SDS011;2548;52.050;11.036;2022-10-13T03:08:51;20.30;;;13.50;;
5058;SDS011;2548;52.050;11.036;2022-10-13T03:11:18;17.90;;;13.95;;
5058;SDS011;2548;52.050;11.036;2022-10-13T03:13:45;16.92;;;11.15;;
5058;SDS011;2548;52.050;11.036;2022-10-13T03:16:12;22.73;;;14.23;;
5058;SDS011;2548;52.050;11.036;2022-10-13T03:18:40;21.35;;;11.85;;
5058;SDS011;2548;52.050;11.036;2022-10-13T03:21:08;22.73;;;13.07;;
5058;SDS011;2548;52.050;11.036;2022-10-13T03:23:38;29.23;;;11.98;;
5058;SDS011;2548;52.050;11.036;2022-10-13T03:26:06;20.85;;;12.40;;
5058;SDS011;2548;52.050;11.036;2022-10-13T03:28:34;26.92;;;13.95;;
5058;SDS011;2548;52.050;11.036;2022-10-13T03:31:02;28.45;;;15.05;;
5058;SDS011;2548;52.050;11.036;2022-10-13T03:33:31;20.20;;;12.75;;
5058;SDS011;2548;52.050;11.036;2022-10-13T03:35:59;21.70;;;12.98;;
5058;SDS011;2548;52.050;11.036;2022-10-13T03:38:27;24.75;;;13.60;;
5058;SDS011;2548;52.050;11.036;2022-10-13T03:40:56;20.27;;;14.20;;
5058;SDS011;2548;52.050;11.036;2022-10-13T03:43:25;22.05;;;12.52;;
5058;SDS011;2548;52.050;11.036;2022-10-13T03:45:53;28.60;;;15.35;;
5058;SDS011;2548;52.050;11.036;2022-10-13T03:48:21;23.25;;;13.75;;
5058;SDS011;2548;52.050;11.036;2022-10-13T03:50:48;25.83;;;14.05;;
5058;SDS011;2548;52.050;11.036;2022-10-13T03:53:16;21.77;;;12.77;;
5058;SDS011;2548;52.050;11.036;2022-10-13T03:55:47;25.88;;;13.45;;
5058;SDS011;2548;52.050;11.036;2022-10-13T03:58:15;25.63;;;13.35;;
5058;SDS011;2548;52.050;11.036;2022-10-13T04:00:45;23.55;;;13.13;;
5058;SDS011;2548;52.050;11.036;2022-10-13T04:03:13;24.42;;;14.68;;
5058;SDS011;2548;52.050;11.036;2022-10-13T04:05:41;21.38;;;13.63;;
5058;SDS011;2548;52.050;11.036;2022-10-13T04:08:09;30.40;;;13.45;;
5058;SDS011;2548;52.050;11.036;2022-10-13T04:10:37;23.35;;;14.10;;
5058;SDS011;2548;52.050;11.036;2022-10-13T04:13:04;21.27;;;13.70;;
5058;SDS011;2548;52.050;11.036;2022-10-13T04:15:34;15.95;;;12.38;;
5058;SDS011;2548;52.050;11.036;2022-10-13T04:18:04;35.03;;;14.77;;
5058;SDS011;2548;52.050;11.036;2022-10-13T04:20:34;18.00;;;13.10;;
5058;SDS011;2548;52.050;11.036;2022-10-13T04:23:03;21.30;;;13.15;;
5058;SDS011;2548;52.050;11.036;2022-10-13T04:25:33;17.13;;;12.95;;
5058;SDS011;2548;52.050;11.036;2022-10-13T04:28:01;20.02;;;11.73;;
5058;SDS011;2548;52.050;11.036;2022-10-13T04:30:29;18.95;;;13.32;;
5058;SDS011;2548;52.050;11.036;2022-10-13T04:32:56;20.58;;;11.80;;
5058;SDS011;2548;52.050;11.036;2022-10-13T04:35:25;23.40;;;12.40;;
5058;SDS011;2548;52.050;11.036;2022-10-13T04:37:52;17.73;;;12.15;;
5058;SDS011;2548;52.050;11.036;2022-10-13T04:40:22;20.13;;;12.57;;
5058;SDS011;2548;52.050;11.036;2022-10-13T04:42:49;15.85;;;12.10;;
5058;SDS011;2548;52.050;11.036;2022-10-13T04:45:17;27.63;;;15.13;;
5058;SDS011;2548;52.050;11.036;2022-10-13T04:47:48;16.13;;;12.73;;
5058;SDS011;2548;52.050;11.036;2022-10-13T04:50:17;19.83;;;13.40;;
5058;SDS011;2548;52.050;11.036;2022-10-13T04:52:47;29.42;;;13.98;;
5058;SDS011;2548;52.050;11.036;2022-10-13T04:55:15;36.28;;;15.18;;
5058;SDS011;2548;52.050;11.036;2022-10-13T04:57:42;24.10;;;14.63;;
5058;SDS011;2548;52.050;11.036;2022-10-13T05:00:10;39.85;;;18.45;;
5058;SDS011;2548;52.050;11.036;2022-10-13T05:02:38;27.88;;;15.93;;
5058;SDS011;2548;52.050;11.036;2022-10-13T05:05:06;18.13;;;13.60;;
5058;SDS011;2548;52.050;11.036;2022-10-13T05:07:33;25.08;;;16.52;;
5058;SDS011;2548;52.050;11.036;2022-10-13T05:10:03;36.92;;;16.70;;
5058;SDS011;2548;52.050;11.036;2022-10-13T05:12:31;28.67;;;15.52;;
5058;SDS011;2548;52.050;11.036;2022-10-13T05:14:58;18.10;;;14.00;;
5058;SDS011;2548;52.050;11.036;2022-10-13T05:17:27;23.60;;;15.63;;
5058;SDS011;2548;52.050;11.036;2022-10-13T05:19:55;19.50;;;14.85;;
5058;SDS011;2548;52.050;11.036;2022-10-13T05:22:23;22.85;;;15.65;;
5058;SDS011;2548;52.050;11.036;2022-10-13T05:24:50;32.65;;;16.25;;
5058;SDS011;2548;52.050;11.036;2022-10-13T05:27:19;21.30;;;14.73;;
5058;SDS011;2548;52.050;11.036;2022-10-13T05:29:47;24.23;;;15.73;;
5058;SDS011;2548;52.050;11.036;2022-10-13T05:32:15;21.55;;;14.18;;
5058;SDS011;2548;52.050;11.036;2022-10-13T05:34:42;27.40;;;15.10;;
5058;SDS011;2548;52.050;11.036;2022-10-13T05:37:10;28.25;;;16.90;;
5058;SDS011;2548;52.050;11.036;2022-10-13T05:39:38;20.02;;;14.13;;
5058;SDS011;2548;52.050;11.036;2022-10-13T05:42:06;21.48;;;13.70;;
5058;SDS011;2548;52.050;11.036;2022-10-13T05:44:34;25.02;;;13.77;;
5058;SDS011;2548;52.050;11.036;2022-10-13T05:47:02;20.10;;;13.93;;
5058;SDS011;2548;52.050;11.036;2022-10-13T05:49:29;21.67;;;13.70;;
5058;SDS011;2548;52.050;11.036;2022-10-13T05:51:58;21.95;;;14.30;;
5058;SDS011;2548;52.050;11.036;2022-10-13T05:54:29;26.10;;;14.25;;
5058;SDS011;2548;52.050;11.036;2022-10-13T05:57:01;20.25;;;13.93;;
5058;SDS011;2548;52.050;11.036;2022-10-13T05:59:31;26.33;;;14.77;;
5058;SDS011;2548;52.050;11.036;2022-10-13T06:02:04;23.52;;;15.40;;
5058;SDS011;2548;52.050;11.036;2022-10-13T06:04:38;20.05;;;14.43;;
5058;SDS011;2548;52.050;11.036;2022-10-13T06:07:08;17.58;;;13.00;;
5058;SDS011;2548;52.050;11.036;2022-10-13T06:09:36;22.88;;;13.75;;
5058;SDS011;2548;52.050;11.036;2022-10-13T06:12:06;21.88;;;13.32;;
5058;SDS011;2548;52.050;11.036;2022-10-13T06:14:35;19.17;;;13.60;;
5058;SDS011;2548;52.050;11.036;2022-10-13T06:17:05;21.67;;;13.23;;
5058;SDS011;2548;52.050;11.036;2022-10-13T06:19:33;18.52;;;13.95;;
5058;SDS011;2548;52.050;11.036;2022-10-13T06:22:06;19.30;;;13.07;;
5058;SDS011;2548;52.050;11.036;2022-10-13T06:24:33;20.75;;;15.10;;
5058;SDS011;2548;52.050;11.036;2022-10-13T06:27:02;23.33;;;14.23;;
5058;SDS011;2548;52.050;11.036;2022-10-13T06:29:30;23.48;;;13.57;;
5058;SDS011;2548;52.050;11.036;2022-10-13T06:31:59;20.75;;;13.30;;
5058;SDS011;2548;52.050;11.036;2022-10-13T06:34:27;20.20;;;12.93;;
5058;SDS011;2548;52.050;11.036;2022-10-13T06:36:54;15.63;;;11.65;;
5058;SDS011;2548;52.050;11.036;2022-10-13T06:39:22;32.58;;;14.00;;
5058;SDS011;2548;52.050;11.036;2022-10-13T06:41:51;23.15;;;12.60;;
5058;SDS011;2548;52.050;11.036;2022-10-13T06:44:28;21.60;;;13.02;;
5058;SDS011;2548;52.050;11.036;2022-10-13T06:47:01;40.60;;;14.25;;
5058;SDS011;2548;52.050;11.036;2022-10-13T06:49:29;30.58;;;16.45;;
5058;SDS011;2548;52.050;11.036;2022-10-13T06:51:57;36.65;;;16.23;;
5058;SDS011;2548;52.050;11.036;2022-10-13T06:54:24;36.60;;;16.83;;
5058;SDS011;2548;52.050;11.036;2022-10-13T06:56:51;43.90;;;17.65;;
5058;SDS011;2548;52.050;11.036;2022-10-13T06:59:19;22.15;;;16.67;;
5058;SDS011;2548;52.050;11.036;2022-10-13T07:01:46;27.80;;;15.98;;
5058;SDS011;2548;52.050;11.036;2022-10-13T07:04:18;30.33;;;16.45;;
5058;SDS011;2548;52.050;11.036;2022-10-13T07:06:45;27.00;;;14.98;;
5058;SDS011;2548;52.050;11.036;2022-10-13T07:09:13;22.38;;;15.27;;
5058;SDS011;2548;52.050;11.036;2022-10-13T07:11:42;22.98;;;13.95;;
5058;SDS011;2548;52.050;11.036;2022-10-13T07:14:10;23.63;;;13.23;;
5058;SDS011;2548;52.050;11.036;2022-10-13T07:16:37;19.73;;;13.38;;
5058;SDS011;2548;52.050;11.036;2022-10-13T07:19:05;19.55;;;14.65;;
5058;SDS011;2548;52.050;11.036;2022-10-13T07:21:34;31.75;;;14.52;;
5058;SDS011;2548;52.050;11.036;2022-10-13T07:24:01;23.63;;;14.40;;
5058;SDS011;2548;52.050;11.036;2022-10-13T07:26:29;19.13;;;15.02;;
5058;SDS011;2548;52.050;11.036;2022-10-13T07:28:58;27.23;;;13.63;;
5058;SDS011;2548;52.050;11.036;2022-10-13T07:31:26;22.40;;;14.70;;
5058;SDS011;2548;52.050;11.036;2022-10-13T07:33:53;26.38;;;13.38;;
5058;SDS011;2548;52.050;11.036;2022-10-13T07:36:27;34.92;;;14.50;;
5058;SDS011;2548;52.050;11.036;2022-10-13T07:38:55;33.28;;;14.50;;
5058;SDS011;2548;52.050;11.036;2022-10-13T07:41:23;22.73;;;14.20;;
5058;SDS011;2548;52.050;11.036;2022-10-13T07:43:54;22.23;;;14.85;;
5058;SDS011;2548;52.050;11.036;2022-10-13T07:46:22;30.75;;;16.17;;
5058;SDS011;2548;52.050;11.036;2022-10-13T07:48:51;25.13;;;14.90;;
5058;SDS011;2548;52.050;11.036;2022-10-13T07:51:19;23.52;;;15.70;;
5058;SDS011;2548;52.050;11.036;2022-10-13T07:53:47;19.98;;;14.13;;
5058;SDS011;2548;52.050;11.036;2022-10-13T07:56:16;21.33;;;14.25;;
5058;SDS011;2548;52.050;11.036;2022-10-13T07:58:44;23.17;;;13.20;;
5058;SDS011;2548;52.050;11.036;2022-10-13T08:01:12;20.08;;;13.80;;
5058;SDS011;2548;52.050;11.036;2022-10-13T08:03:42;26.48;;;14.25;;
5058;SDS011;2548;52.050;11.036;2022-10-13T08:06:15;22.25;;;14.13;;
5058;SDS011;2548;52.050;11.036;2022-10-13T08:08:43;22.20;;;14.68;;
5058;SDS011;2548;52.050;11.036;2022-10-13T08:11:14;24.30;;;15.02;;
5058;SDS011;2548;52.050;11.036;2022-10-13T08:13:46;18.13;;;14.07;;
5058;SDS011;2548;52.050;11.036;2022-10-13T08:16:19;26.25;;;14.43;;
5058;SDS011;2548;52.050;11.036;2022-10-13T08:18:47;27.20;;;14.65;;
5058;SDS011;2548;52.050;11.036;2022-10-13T08:21:15;31.25;;;16.00;;
5058;SDS011;2548;52.050;11.036;2022-10-13T08:23:44;20.35;;;15.68;;
5058;SDS011;2548;52.050;11.036;2022-10-13T08:26:13;30.73;;;15.80;;
5058;SDS011;2548;52.050;11.036;2022-10-13T08:28:41;25.67;;;16.40;;
5058;SDS011;2548;52.050;11.036;2022-10-13T08:31:11;30.98;;;16.80;;
5058;SDS011;2548;52.050;11.036;2022-10-13T08:33:38;35.47;;;16.10;;
5058;SDS011;2548;52.050;11.036;2022-10-13T08:36:08;28.00;;;15.77;;
5058;SDS011;2548;52.050;11.036;2022-10-13T08:38:36;24.92;;;15.25;;
5058;SDS011;2548;52.050;11.036;2022-10-13T08:41:09;23.52;;;15.75;;
5058;SDS011;2548;52.050;11.036;2022-10-13T08:43:44;23.63;;;15.40;;
5058;SDS011;2548;52.050;11.036;2022-10-13T08:46:18;29.08;;;16.65;;
5058;SDS011;2548;52.050;11.036;2022-10-13T08:48:51;31.95;;;17.55;;
5058;SDS011;2548;52.050;11.036;2022-10-13T08:51:19;39.53;;;18.48;;
5058;SDS011;2548;52.050;11.036;2022-10-13T08:53:47;37.90;;;17.88;;
5058;SDS011;2548;52.050;11.036;2022-10-13T08:56:16;27.55;;;15.73;;
5058;SDS011;2548;52.050;11.036;2022-10-13T08:58:46;28.02;;;15.63;;
5058;SDS011;2548;52.050;11.036;2022-10-13T09:01:16;34.38;;;17.92;;
5058;SDS011;2548;52.050;11.036;2022-10-13T09:03:51;24.60;;;17.70;;
5058;SDS011;2548;52.050;11.036;2022-10-13T09:06:21;33.97;;;19.80;;
5058;SDS011;2548;52.050;11.036;2022-10-13T09:08:54;49.45;;;28.30;;
5058;SDS011;2548;52.050;11.036;2022-10-13T09:11:27;35.40;;;22.45;;
5058;SDS011;2548;52.050;11.036;2022-10-13T09:13:58;26.85;;;17.45;;
5058;SDS011;2548;52.050;11.036;2022-10-13T09:16:31;28.27;;;17.73;;
5058;SDS011;2548;52.050;11.036;2022-10-13T09:19:11;25.02;;;17.00;;
5058;SDS011;2548;52.050;11.036;2022-10-13T09:21:43;30.75;;;15.90;;
5058;SDS011;2548;52.050;11.036;2022-10-13T09:24:12;25.38;;;15.85;;
5058;SDS011;2548;52.050;11.036;2022-10-13T09:26:42;24.63;;;16.13;;
5058;SDS011;2548;52.050;11.036;2022-10-13T09:29:13;22.33;;;15.43;;
5058;SDS011;2548;52.050;11.036;2022-10-13T09:31:44;29.90;;;17.00;;
5058;SDS011;2548;52.050;11.036;2022-10-13T09:34:13;27.05;;;16.10;;
5058;SDS011;2548;52.050;11.036;2022-10-13T09:36:55;23.27;;;15.20;;
5058;SDS011;2548;52.050;11.036;2022-10-13T09:39:23;25.20;;;15.77;;
5058;SDS011;2548;52.050;11.036;2022-10-13T09:41:50;27.52;;;17.13;;
5058;SDS011;2548;52.050;11.036;2022-10-13T09:44:34;43.55;;;18.73;;
5058;SDS011;2548;52.050;11.036;2022-10-13T09:47:03;27.90;;;18.10;;
5058;SDS011;2548;52.050;11.036;2022-10-13T09:49:32;31.60;;;16.35;;
5058;SDS011;2548;52.050;11.036;2022-10-13T09:52:05;24.95;;;17.25;;
5058;SDS011;2548;52.050;11.036;2022-10-13T09:54:43;26.85;;;16.45;;
5058;SDS011;2548;52.050;11.036;2022-10-13T09:57:20;24.23;;;16.77;;
5058;SDS011;2548;52.050;11.036;2022-10-13T09:59:57;25.55;;;16.00;;
5058;SDS011;2548;52.050;11.036;2022-10-13T10:02:39;26.08;;;15.20;;
5058;SDS011;2548;52.050;11.036;2022-10-13T10:05:17;20.20;;;14.90;;
5058;SDS011;2548;52.050;11.036;2022-10-13T10:07:55;23.17;;;15.30;;
5058;SDS011;2548;52.050;11.036;2022-10-13T10:10:31;21.98;;;15.50;;
5058;SDS011;2548;52.050;11.036;2022-10-13T10:13:02;26.55;;;15.18;;
5058;SDS011;2548;52.050;11.036;2022-10-13T10:15:31;20.80;;;15.75;;
5058;SDS011;2548;52.050;11.036;2022-10-13T10:18:06;22.67;;;14.65;;
5058;SDS011;2548;52.050;11.036;2022-10-13T10:20:51;24.15;;;14.48;;
5058;SDS011;2548;52.050;11.036;2022-10-13T10:23:28;24.92;;;13.88;;
5058;SDS011;2548;52.050;11.036;2022-10-13T10:26:04;27.63;;;13.65;;
5058;SDS011;2548;52.050;11.036;2022-10-13T10:28:38;19.48;;;12.85;;
5058;SDS011;2548;52.050;11.036;2022-10-13T10:31:21;18.02;;;11.13;;
5058;SDS011;2548;52.050;11.036;2022-10-13T10:34:00;29.25;;;14.90;;
5058;SDS011;2548;52.050;11.036;2022-10-13T10:36:56;29.25;;;12.50;;
5058;SDS011;2548;52.050;11.036;2022-10-13T10:39:37;18.88;;;11.80;;
5058;SDS011;2548;52.050;11.036;2022-10-13T10:42:10;14.52;;;10.25;;
5058;SDS011;2548;52.050;11.036;2022-10-13T10:44:57;22.35;;;10.57;;
5058;SDS011;2548;52.050;11.036;2022-10-13T10:47:31;11.85;;;9.27;;
5058;SDS011;2548;52.050;11.036;2022-10-13T10:50:07;27.67;;;11.13;;
5058;SDS011;2548;52.050;11.036;2022-10-13T10:52:41;14.45;;;9.70;;
5058;SDS011;2548;52.050;11.036;2022-10-13T10:55:19;23.58;;;12.15;;
5058;SDS011;2548;52.050;11.036;2022-10-13T10:57:51;16.83;;;10.90;;
5058;SDS011;2548;52.050;11.036;2022-10-13T11:00:27;17.88;;;9.27;;
5058;SDS011;2548;52.050;11.036;2022-10-13T11:02:57;15.18;;;9.85;;
5058;SDS011;2548;52.050;11.036;2022-10-13T11:05:33;10.15;;;7.07;;
5058;SDS011;2548;52.050;11.036;2022-10-13T11:08:26;13.63;;;8.13;;
5058;SDS011;2548;52.050;11.036;2022-10-13T11:13:57;14.48;;;7.10;;
5058;SDS011;2548;52.050;11.036;2022-10-13T11:16:28;10.85;;;7.57;;
5058;SDS011;2548;52.050;11.036;2022-10-13T11:18:58;19.40;;;6.97;;
5058;SDS011;2548;52.050;11.036;2022-10-13T11:24:42;9.15;;;6.85;;
5058;SDS011;2548;52.050;11.036;2022-10-13T11:42:25;10.35;;;7.70;;
5058;SDS011;2548;52.050;11.036;2022-10-13T11:45:26;15.65;;;7.78;;
5058;SDS011;2548;52.050;11.036;2022-10-13T11:51:04;9.48;;;6.90;;
5058;SDS011;2548;52.050;11.036;2022-10-13T11:53:41;13.93;;;6.60;;
5058;SDS011;2548;52.050;11.036;2022-10-13T11:56:19;11.57;;;5.65;;
5058;SDS011;2548;52.050;11.036;2022-10-13T11:58:47;9.07;;;6.03;;
5058;SDS011;2548;52.050;11.036;2022-10-13T12:01:15;13.35;;;7.15;;
5058;SDS011;2548;52.050;11.036;2022-10-13T12:03:44;10.63;;;6.43;;
5058;SDS011;2548;52.050;11.036;2022-10-13T12:06:21;11.60;;;6.20;;
5058;SDS011;2548;52.050;11.036;2022-10-13T12:08:59;8.98;;;6.18;;
5058;SDS011;2548;52.050;11.036;2022-10-13T12:11:31;12.02;;;5.82;;
5058;SDS011;2548;52.050;11.036;2022-10-13T12:14:01;11.07;;;5.15;;
5058;SDS011;2548;52.050;11.036;2022-10-13T12:16:31;7.30;;;4.30;;
5058;SDS011;2548;52.050;11.036;2022-10-13T12:19:05;12.32;;;4.57;;
5058;SDS011;2548;52.050;11.036;2022-10-13T12:21:34;6.43;;;3.95;;
5058;SDS011;2548;52.050;11.036;2022-10-13T12:24:14;6.15;;;4.15;;
5058;SDS011;2548;52.050;11.036;2022-10-13T12:26:43;5.90;;;4.20;;
5058;SDS011;2548;52.050;11.036;2022-10-13T12:29:11;9.05;;;4.50;;
5058;SDS011;2548;52.050;11.036;2022-10-13T12:31:41;4.90;;;3.97;;
5058;SDS011;2548;52.050;11.036;2022-10-13T12:34:15;9.10;;;3.78;;
5058;SDS011;2548;52.050;11.036;2022-10-13T12:36:46;13.75;;;5.18;;
5058;SDS011;2548;52.050;11.036;2022-10-13T12:39:19;3.83;;;3.47;;
5058;SDS011;2548;52.050;11.036;2022-10-13T12:41:51;15.90;;;4.35;;
5058;SDS011;2548;52.050;11.036;2022-10-13T12:44:20;6.67;;;3.97;;
5058;SDS011;2548;52.050;11.036;2022-10-13T12:46:51;5.65;;;5.03;;
5058;SDS011;2548;52.050;11.036;2022-10-13T12:49:21;6.50;;;4.05;;
5058;SDS011;2548;52.050;11.036;2022-10-13T12:51:51;7.10;;;4.40;;
5058;SDS011;2548;52.050;11.036;2022-10-13T12:54:23;7.32;;;4.15;;
5058;SDS011;2548;52.050;11.036;2022-10-13T12:56:55;10.00;;;3.75;;
5058;SDS011;2548;52.050;11.036;2022-10-13T12:59:24;3.97;;;3.40;;
5058;SDS011;2548;52.050;11.036;2022-10-13T13:01:58;8.27;;;3.90;;
5058;SDS011;2548;52.050;11.036;2022-10-13T13:04:28;5.90;;;3.50;;
5058;SDS011;2548;52.050;11.036;2022-10-13T13:07:04;5.65;;;3.97;;
5058;SDS011;2548;52.050;11.036;2022-10-13T13:09:57;8.75;;;4.32;;
5058;SDS011;2548;52.050;11.036;2022-10-13T13:12:27;8.38;;;4.45;;
5058;SDS011;2548;52.050;11.036;2022-10-13T13:14:56;5.05;;;3.70;;
5058;SDS011;2548;52.050;11.036;2022-10-13T13:17:29;8.90;;;3.80;;
5058;SDS011;2548;52.050;11.036;2022-10-13T13:19:57;11.13;;;4.00;;
5058;SDS011;2548;52.050;11.036;2022-10-13T13:22:25;7.90;;;3.92;;
5058;SDS011;2548;52.050;11.036;2022-10-13T13:24:52;7.53;;;3.80;;
5058;SDS011;2548;52.050;11.036;2022-10-13T13:27:22;8.00;;;3.70;;
5058;SDS011;2548;52.050;11.036;2022-10-13T13:29:53;7.00;;;3.45;;
5058;SDS011;2548;52.050;11.036;2022-10-13T13:32:21;8.15;;;4.38;;
5058;SDS011;2548;52.050;11.036;2022-10-13T13:34:50;9.57;;;4.03;;
5058;SDS011;2548;52.050;11.036;2022-10-13T13:37:27;7.03;;;3.67;;
5058;SDS011;2548;52.050;11.036;2022-10-13T13:39:57;8.68;;;4.03;;
5058;SDS011;2548;52.050;11.036;2022-10-13T13:42:26;7.30;;;3.40;;
5058;SDS011;2548;52.050;11.036;2022-10-13T13:44:55;5.53;;;3.50;;
5058;SDS011;2548;52.050;11.036;2022-10-13T13:47:23;4.40;;;3.17;;
5058;SDS011;2548;52.050;11.036;2022-10-13T13:49:53;10.90;;;3.90;;
5058;SDS011;2548;52.050;11.036;2022-10-13T13:52:21;7.72;;;3.85;;
5058;SDS011;2548;52.050;11.036;2022-10-13T13:54:49;7.30;;;3.40;;
5058;SDS011;2548;52.050;11.036;2022-10-13T13:57:18;7.80;;;3.87;;
5058;SDS011;2548;52.050;11.036;2022-10-13T13:59:45;3.77;;;3.37;;
5058;SDS011;2548;52.050;11.036;2022-10-13T14:02:15;4.80;;;3.63;;
5058;SDS011;2548;52.050;11.036;2022-10-13T14:04:44;5.30;;;3.03;;
5058;SDS011;2548;52.050;11.036;2022-10-13T14:07:12;7.13;;;3.20;;
5058;SDS011;2548;52.050;11.036;2022-10-13T14:09:39;5.70;;;2.90;;
5058;SDS011;2548;52.050;11.036;2022-10-13T14:12:08;7.22;;;3.30;;
5058;SDS011;2548;52.050;11.036;2022-10-13T14:14:36;10.57;;;3.30;;
5058;SDS011;2548;52.050;11.036;2022-10-13T14:17:04;5.30;;;3.30;;
5058;SDS011;2548;52.050;11.036;2022-10-13T14:19:33;5.70;;;2.53;;
5058;SDS011;2548;52.050;11.036;2022-10-13T14:22:00;6.22;;;3.47;;
5058;SDS011;2548;52.050;11.036;2022-10-13T14:24:29;3.72;;;3.17;;
5058;SDS011;2548;52.050;11.036;2022-10-13T14:26:56;17.97;;;3.53;;
5058;SDS011;2548;52.050;11.036;2022-10-13T14:29:24;5.95;;;3.53;;
5058;SDS011;2548;52.050;11.036;2022-10-13T14:31:51;14.83;;;3.50;;
5058;SDS011;2548;52.050;11.036;2022-10-13T14:34:18;3.40;;;3.15;;
5058;SDS011;2548;52.050;11.036;2022-10-13T14:36:47;6.13;;;3.72;;
5058;SDS011;2548;52.050;11.036;2022-10-13T14:39:14;5.82;;;4.57;;
5058;SDS011;2548;52.050;11.036;2022-10-13T14:41:42;8.43;;;5.50;;
5058;SDS011;2548;52.050;11.036;2022-10-13T14:44:10;8.00;;;5.30;;
5058;SDS011;2548;52.050;11.036;2022-10-13T14:46:38;8.02;;;7.25;;
5058;SDS011;2548;52.050;11.036;2022-10-13T14:49:06;5.38;;;3.80;;
5058;SDS011;2548;52.050;11.036;2022-10-13T14:51:37;6.53;;;3.28;;
5058;SDS011;2548;52.050;11.036;2022-10-13T14:54:05;5.40;;;3.50;;
5058;SDS011;2548;52.050;11.036;2022-10-13T14:56:33;6.90;;;4.43;;
5058;SDS011;2548;52.050;11.036;2022-10-13T14:59:01;4.38;;;3.20;;
5058;SDS011;2548;52.050;11.036;2022-10-13T15:01:36;4.43;;;3.60;;
5058;SDS011;2548;52.050;11.036;2022-10-13T15:04:06;12.05;;;4.32;;
5058;SDS011;2548;52.050;11.036;2022-10-13T15:06:33;6.50;;;4.10;;
5058;SDS011;2548;52.050;11.036;2022-10-13T15:09:02;4.85;;;3.78;;
5058;SDS011;2548;52.050;11.036;2022-10-13T15:11:31;6.00;;;3.70;;
5058;SDS011;2548;52.050;11.036;2022-10-13T15:13:58;10.07;;;3.25;;
5058;SDS011;2548;52.050;11.036;2022-10-13T15:16:26;3.83;;;3.00;;
5058;SDS011;2548;52.050;11.036;2022-10-13T15:18:57;4.75;;;3.15;;
5058;SDS011;2548;52.050;11.036;2022-10-13T15:21:24;5.50;;;2.75;;
5058;SDS011;2548;52.050;11.036;2022-10-13T15:23:52;6.15;;;3.72;;
5058;SDS011;2548;52.050;11.036;2022-10-13T15:26:19;7.93;;;3.40;;